Flight Track Log - Related Links

Times and Time Zones

All times are in EDT time to prevent confusion due to time zone crossing. See the SWA152 flight status page for this flight to view local times or setup timezone preferences in your user account.

Time Position Orientation Groundspeed Altitude Reporting Facility
EDT Latitude Longitude Course Direction KTS MPH feet Rate Location/Type
Mon 01:43:44 PM 36.0758 -115.1764 271° West 199 229 3,300  Level Los Angeles Center
Mon 01:44:20 PM 36.0764 -115.2186 271° West 207 238 4,400 1,429 Climbing Los Angeles Center
Mon 01:44:26 PM 36.0764 -115.2150 90° East 202 232 4,300 2,294 Descending Los Angeles Center
Mon 01:45:28 PM 36.0361 -115.2706 228° Southwest 240 276 7,000 2,903 Climbing Los Angeles Center
Mon 01:46:30 PM 35.9503 -115.2931 192° South 260 299 10,300 2,468 Climbing Los Angeles Center
Mon 01:47:32 PM 35.9156 -115.2014 115° Southeast 303 349 12,100 2,032 Climbing Los Angeles Center
Mon 01:48:34 PM 35.9039 -115.0822 97° East 340 391 14,500 2,274 Climbing Los Angeles Center
Mon 01:49:36 PM 35.8925 -114.9567 96° East 360 414 16,800 2,032 Climbing Los Angeles Center
Mon 01:50:38 PM 35.8775 -114.8269 98° East 379 436 18,700 1,920 Climbing Los Angeles Center
Mon 01:51:41 PM 35.8650 -114.6919 96° East 396 456 20,800 2,064 Climbing Los Angeles Center
Mon 01:52:43 PM 35.8239 -114.5372 108° East 402 463 23,000 1,887 Climbing Los Angeles Center
Mon 01:53:45 PM 35.7619 -114.4211 123° Southeast 406 467 24,700 1,548 Climbing Los Angeles Center
Mon 01:54:47 PM 35.6986 -114.3006 123° Southeast 418 481 26,200 1,548 Climbing Los Angeles Center
Mon 01:55:49 PM 35.6294 -114.1703 123° Southeast 424 488 27,900 1,355 Climbing Los Angeles Center
Mon 01:56:51 PM 35.5633 -114.0481 124° Southeast 430 495 29,000 1,113 Climbing Los Angeles Center
Mon 01:57:53 PM 35.4950 -113.9206 123° Southeast 446 513 30,200 1,186 Climbing Los Angeles Center
Mon 01:59:48 PM 35.3583 -113.6678 123° Southeast 449 517 32,500 949 Climbing Albuquerque Center
Mon 02:00:50 PM 35.2900 -113.5419 124° Southeast 449 517 33,000 242 Climbing Albuquerque Center
Mon 02:01:52 PM 35.2208 -113.4164 124° Southeast 450 518 33,000  Level Albuquerque Center
Mon 02:02:54 PM 35.1508 -113.2894 124° Southeast 454 522 33,000  Level Albuquerque Center
Mon 02:04:06 PM 35.0697 -113.1403 124° Southeast 450 518 33,000  Level Los Angeles Center
Mon 02:04:58 PM 35.0014 -113.0172 124° Southeast 447 514 33,000  Level Albuquerque Center
Mon 02:06:00 PM 34.9317 -112.8917 124° Southeast 449 517 33,000  Level Albuquerque Center
Mon 02:07:02 PM 34.8628 -112.7664 124° Southeast 451 519 33,000  Level Albuquerque Center
Mon 02:08:04 PM 34.7783 -112.6147 124° Southeast 453 521 33,000 -97 Level Albuquerque Center
Mon 02:09:06 PM 34.7056 -112.4908 126° Southeast 454 522 32,800 -581 Descending Albuquerque Center
Mon 02:10:08 PM 34.5931 -112.4350 158° South 436 502 31,800 -871 Descending Albuquerque Center
Mon 02:11:10 PM 34.4736 -112.3872 162° South 433 498 31,000 -387 Descending Albuquerque Center
Mon 02:12:12 PM 34.3592 -112.3411 162° South 434 499 31,000  Level Albuquerque Center
Mon 02:13:14 PM 34.2442 -112.2942 161° South 437 503 31,000  Level Albuquerque Center
Mon 02:14:16 PM 34.1308 -112.2481 161° South 434 499 31,000  Level Albuquerque Center
Mon 02:15:18 PM 33.9936 -112.1931 162° South 437 503 31,000  Level Albuquerque Center
Mon 02:16:20 PM 33.8794 -112.1475 162° South 437 503 31,000  Level Albuquerque Center
Mon 02:17:21 PM 33.7658 -112.1017 161° South 437 503 31,000  Level Albuquerque Center
Mon 02:18:23 PM 33.6514 -112.0567 162° South 436 502 31,000  Level Albuquerque Center
Mon 02:19:25 PM 33.5353 -112.0097 161° South 440 506 31,000 -435 Level Albuquerque Center
Mon 02:20:27 PM 33.3947 -111.9631 165° South 440 506 30,100 -919 Descending Albuquerque Center
Mon 02:21:29 PM 33.2764 -111.9511 175° South 429 494 29,100 -976 Descending Albuquerque Center
Mon 02:22:30 PM 33.1600 -111.9386 175° South 425 489 28,100 -1,220 Descending Albuquerque Center
Mon 02:23:32 PM 33.0461 -111.9256 175° South 415 478 26,600 -1,694 Descending Albuquerque Center
Mon 02:24:34 PM 32.9378 -111.9136 175° South 395 455 24,600 -1,984 Descending Albuquerque Center
Mon 02:25:36 PM 32.8389 -111.8686 159° South 388 447 22,500 -2,195 Descending Albuquerque Center
Mon 02:26:37 PM 32.7364 -111.7819 145° Southeast 380 437 20,100 -2,167 Descending Albuquerque Center
Mon 02:27:24 PM 32.6697 -111.7322 148° Southeast 368 423 18,600 -1,839 Descending Albuquerque Center
Mon 02:27:39 PM 32.6550 -111.7142 134° Southeast 363 418 18,200 -1,622 Descending Albuquerque Center
Mon 02:28:01 PM 32.6239 -111.6936 151° Southeast 360 414 17,600 -1,839 Descending Albuquerque Center
Mon 02:28:41 PM 32.5742 -111.6522 145° Southeast 351 404 16,300 -2,073 Descending Albuquerque Center
Mon 02:28:56 PM 32.5503 -111.6322 145° Southeast 351 404 15,700 -2,066 Descending Albuquerque Center
Mon 02:29:42 PM 32.5108 -111.5658 125° Southeast 356 410 14,200 -1,700 Descending Albuquerque Center
Mon 02:29:56 PM 32.4925 -111.5414 132° Southeast 347 399 14,000 -1,161 Descending Albuquerque Center
Mon 02:30:44 PM 32.4550 -111.4775 125° Southeast 341 392 13,000 -1,418 Descending Albuquerque Center
Mon 02:30:51 PM 32.4425 -111.4589 129° Southeast 333 383 12,700 -1,839 Descending Albuquerque Center
Mon 02:31:46 PM 32.4089 -111.3883 119° Southeast 326 375 11,100 -1,967 Descending Albuquerque Center
Mon 02:31:52 PM 32.3975 -111.3697 126° Southeast 322 371 10,700 -1,161 Descending Albuquerque Center
Mon 02:32:48 PM 32.3667 -111.2989 117° Southeast 317 365 9,900 -1,180 Descending Albuquerque Center
Mon 02:32:53 PM 32.3536 -111.2756 124° Southeast 304 350 9,500 -2,066 Descending Albuquerque Center
Mon 02:33:49 PM 32.3208 -111.2006 117° Southeast 293 337 7,800 -1,800 Descending Albuquerque Center
Mon 02:33:53 PM 32.3142 -111.1928 135° Southeast 289 333 7,700 -930 Descending Albuquerque Center
Mon 02:35:00 PM 32.2675 -111.1172 126° Southeast 268 308 6,700 -1,000 Descending Albuquerque Center
Mon 02:35:53 PM 32.2317 -111.0633 128° Southeast 270 311 5,700 -1,082 Descending Albuquerque Center
Mon 02:36:01 PM 32.2203 -111.0619 174° South 237 273 5,600 -774 Descending Albuquerque Center
Mon 02:36:55 PM 32.1906 -111.0236 132° Southeast 224 258 4,900 -1,082 Descending Albuquerque Center
Mon 02:37:02 PM 32.1814 -111.0169 148° Southeast 177 204 4,500 -984 Descending Albuquerque Center
Mon 02:37:56 PM 32.1569 -110.9778 126° Southeast 197 227 3,900 -1,200 Descending Albuquerque Center
Mon 02:38:02 PM 32.1511 -110.9822 213° Southwest 152 175 3,300 -6,000 Descending Albuquerque Center
Mon 02:40:00 PM 32.1161 -110.9410 128° Southeast  Level Estimated
Mon 02:47:00 PM 32.1161 -110.9410 128° Southeast  Level Estimated

Login

Don't have an account? Register now (free) for customized features, flight alerts, and more!